sensor_id;sensor_type;location;lat;lon;timestamp;temperature;humidity
39345;DHT22;25061;51.954;6.996;2023-05-07T05:30:12;12.60;99.90
39345;DHT22;25061;51.954;6.996;2023-05-07T05:32:38;12.60;99.90
39345;DHT22;25061;51.954;6.996;2023-05-07T05:35:04;12.60;99.90
39345;DHT22;25061;51.954;6.996;2023-05-07T05:37:30;12.60;99.90
39345;DHT22;25061;51.954;6.996;2023-05-07T05:39:56;12.60;99.90
39345;DHT22;25061;51.954;6.996;2023-05-07T05:42:22;12.60;99.90
39345;DHT22;25061;51.954;6.996;2023-05-07T05:44:48;12.80;99.90
39345;DHT22;25061;51.954;6.996;2023-05-07T05:47:14;12.80;99.90
39345;DHT22;25061;51.954;6.996;2023-05-07T05:49:40;12.90;99.90
39345;DHT22;25061;51.954;6.996;2023-05-07T05:52:07;12.90;99.90
39345;DHT22;25061;51.954;6.996;2023-05-07T05:54:32;12.90;99.90
39345;DHT22;25061;51.954;6.996;2023-05-07T05:56:58;12.90;99.90
39345;DHT22;25061;51.954;6.996;2023-05-07T05:59:23;12.90;99.90
39345;DHT22;25061;51.954;6.996;2023-05-07T06:01:49;13.00;99.90
39345;DHT22;25061;51.954;6.996;2023-05-07T06:04:16;13.10;99.90
39345;DHT22;25061;51.954;6.996;2023-05-07T06:06:41;13.10;99.90
39345;DHT22;25061;51.954;6.996;2023-05-07T06:09:07;13.20;99.90
39345;DHT22;25061;51.954;6.996;2023-05-07T06:11:32;13.20;99.90
39345;DHT22;25061;51.954;6.996;2023-05-07T06:13:58;13.30;99.90
39345;DHT22;25061;51.954;6.996;2023-05-07T06:16:25;13.30;99.90
39345;DHT22;25061;51.954;6.996;2023-05-07T06:18:50;13.30;99.90
39345;DHT22;25061;51.954;6.996;2023-05-07T06:21:16;13.40;99.90
39345;DHT22;25061;51.954;6.996;2023-05-07T06:23:42;13.40;99.90
39345;DHT22;25061;51.954;6.996;2023-05-07T06:26:07;13.50;99.90
39345;DHT22;25061;51.954;6.996;2023-05-07T06:28:33;13.50;99.90
39345;DHT22;25061;51.954;6.996;2023-05-07T06:31:19;13.50;99.90
39345;DHT22;25061;51.954;6.996;2023-05-07T06:33:48;13.60;99.90
39345;DHT22;25061;51.954;6.996;2023-05-07T06:36:14;13.60;99.90
39345;DHT22;25061;51.954;6.996;2023-05-07T06:38:40;13.60;99.90
39345;DHT22;25061;51.954;6.996;2023-05-07T06:41:06;13.80;99.90
39345;DHT22;25061;51.954;6.996;2023-05-07T06:43:32;13.80;99.90
39345;DHT22;25061;51.954;6.996;2023-05-07T06:45:58;13.80;99.90
39345;DHT22;25061;51.954;6.996;2023-05-07T06:48:24;13.90;99.90
39345;DHT22;25061;51.954;6.996;2023-05-07T06:50:50;14.10;99.90
39345;DHT22;25061;51.954;6.996;2023-05-07T06:53:15;14.00;99.90
39345;DHT22;25061;51.954;6.996;2023-05-07T06:55:42;14.30;99.90
39345;DHT22;25061;51.954;6.996;2023-05-07T06:58:08;14.60;99.90
39345;DHT22;25061;51.954;6.996;2023-05-07T07:00:33;14.50;99.90
39345;DHT22;25061;51.954;6.996;2023-05-07T07:02:59;14.70;99.90
39345;DHT22;25061;51.954;6.996;2023-05-07T07:05:26;14.60;99.90
39345;DHT22;25061;51.954;6.996;2023-05-07T07:07:51;14.60;99.90
39345;DHT22;25061;51.954;6.996;2023-05-07T07:10:21;14.80;99.90
39345;DHT22;25061;51.954;6.996;2023-05-07T07:12:47;14.60;99.90
39345;DHT22;25061;51.954;6.996;2023-05-07T07:15:13;14.50;99.90
39345;DHT22;25061;51.954;6.996;2023-05-07T07:17:40;14.60;99.90
39345;DHT22;25061;51.954;6.996;2023-05-07T07:20:06;14.50;99.90
39345;DHT22;25061;51.954;6.996;2023-05-07T07:22:32;14.60;99.90
39345;DHT22;25061;51.954;6.996;2023-05-07T07:24:58;14.60;99.90
39345;DHT22;25061;51.954;6.996;2023-05-07T07:27:23;14.80;99.90
39345;DHT22;25061;51.954;6.996;2023-05-07T07:29:49;14.90;99.90
39345;DHT22;25061;51.954;6.996;2023-05-07T07:32:15;14.90;99.90
39345;DHT22;25061;51.954;6.996;2023-05-07T07:34:40;14.90;99.90
39345;DHT22;25061;51.954;6.996;2023-05-07T07:37:06;14.70;99.90
39345;DHT22;25061;51.954;6.996;2023-05-07T07:39:32;14.90;99.90
39345;DHT22;25061;51.954;6.996;2023-05-07T07:41:58;14.90;99.90
39345;DHT22;25061;51.954;6.996;2023-05-07T07:44:23;15.10;99.90
39345;DHT22;25061;51.954;6.996;2023-05-07T07:46:49;15.30;99.90
39345;DHT22;25061;51.954;6.996;2023-05-07T07:49:16;15.30;99.90
39345;DHT22;25061;51.954;6.996;2023-05-07T07:51:42;15.30;99.90
39345;DHT22;25061;51.954;6.996;2023-05-07T07:54:08;15.20;99.90
39345;DHT22;25061;51.954;6.996;2023-05-07T07:56:35;15.10;99.90
39345;DHT22;25061;51.954;6.996;2023-05-07T07:59:01;15.30;99.90
39345;DHT22;25061;51.954;6.996;2023-05-07T08:01:28;15.10;99.90
39345;DHT22;25061;51.954;6.996;2023-05-07T08:03:54;15.30;99.90
39345;DHT22;25061;51.954;6.996;2023-05-07T08:06:19;15.40;99.90
39345;DHT22;25061;51.954;6.996;2023-05-07T08:08:45;15.70;99.90
39345;DHT22;25061;51.954;6.996;2023-05-07T08:11:10;15.70;99.90
39345;DHT22;25061;51.954;6.996;2023-05-07T08:13:37;15.80;99.90
39345;DHT22;25061;51.954;6.996;2023-05-07T08:16:04;15.90;99.90
39345;DHT22;25061;51.954;6.996;2023-05-07T08:18:29;15.70;99.90
39345;DHT22;25061;51.954;6.996;2023-05-07T08:20:55;15.50;99.90
39345;DHT22;25061;51.954;6.996;2023-05-07T08:23:21;15.70;99.90
39345;DHT22;25061;51.954;6.996;2023-05-07T08:25:48;15.70;99.90
39345;DHT22;25061;51.954;6.996;2023-05-07T08:28:13;16.00;99.90
39345;DHT22;25061;51.954;6.996;2023-05-07T08:30:39;16.00;99.90
39345;DHT22;25061;51.954;6.996;2023-05-07T08:33:04;15.90;99.90
39345;DHT22;25061;51.954;6.996;2023-05-07T08:35:30;16.10;99.90
39345;DHT22;25061;51.954;6.996;2023-05-07T08:37:56;16.20;99.90
39345;DHT22;25061;51.954;6.996;2023-05-07T08:40:25;16.30;99.90
39345;DHT22;25061;51.954;6.996;2023-05-07T08:42:53;16.00;99.90
39345;DHT22;25061;51.954;6.996;2023-05-07T08:45:20;16.20;99.90
39345;DHT22;25061;51.954;6.996;2023-05-07T08:48:01;16.00;99.90
39345;DHT22;25061;51.954;6.996;2023-05-07T08:50:27;16.20;99.90
39345;DHT22;25061;51.954;6.996;2023-05-07T08:52:53;16.30;99.90
39345;DHT22;25061;51.954;6.996;2023-05-07T08:55:20;16.30;99.90
39345;DHT22;25061;51.954;6.996;2023-05-07T08:57:45;16.30;99.90
39345;DHT22;25061;51.954;6.996;2023-05-07T09:00:12;16.20;99.90
39345;DHT22;25061;51.954;6.996;2023-05-07T09:02:38;16.10;99.90
39345;DHT22;25061;51.954;6.996;2023-05-07T09:05:04;16.10;99.90
39345;DHT22;25061;51.954;6.996;2023-05-07T09:07:30;16.20;99.90
39345;DHT22;25061;51.954;6.996;2023-05-07T09:09:56;16.40;99.90
39345;DHT22;25061;51.954;6.996;2023-05-07T09:12:23;16.40;99.90
39345;DHT22;25061;51.954;6.996;2023-05-07T09:14:49;16.40;99.90
39345;DHT22;25061;51.954;6.996;2023-05-07T09:17:16;16.70;99.90
39345;DHT22;25061;51.954;6.996;2023-05-07T09:19:46;16.70;99.90
39345;DHT22;25061;51.954;6.996;2023-05-07T09:22:12;16.90;99.90
39345;DHT22;25061;51.954;6.996;2023-05-07T09:24:38;17.10;99.90
39345;DHT22;25061;51.954;6.996;2023-05-07T09:27:05;17.20;99.90
39345;DHT22;25061;51.954;6.996;2023-05-07T09:29:31;17.10;99.90
39345;DHT22;25061;51.954;6.996;2023-05-07T09:32:07;16.80;99.90
39345;DHT22;25061;51.954;6.996;2023-05-07T09:34:34;17.10;99.90
39345;DHT22;25061;51.954;6.996;2023-05-07T09:37:04;17.00;99.90
39345;DHT22;25061;51.954;6.996;2023-05-07T09:39:43;17.40;99.90
39345;DHT22;25061;51.954;6.996;2023-05-07T09:42:10;17.60;99.90
39345;DHT22;25061;51.954;6.996;2023-05-07T09:44:37;17.60;99.90
39345;DHT22;25061;51.954;6.996;2023-05-07T09:47:05;17.50;99.90
39345;DHT22;25061;51.954;6.996;2023-05-07T09:49:35;17.50;99.90
39345;DHT22;25061;51.954;6.996;2023-05-07T09:52:03;18.00;99.90
39345;DHT22;25061;51.954;6.996;2023-05-07T09:54:31;18.10;99.90
39345;DHT22;25061;51.954;6.996;2023-05-07T09:56:58;18.10;99.90
39345;DHT22;25061;51.954;6.996;2023-05-07T09:59:25;18.00;99.90
39345;DHT22;25061;51.954;6.996;2023-05-07T10:01:52;18.20;99.90
39345;DHT22;25061;51.954;6.996;2023-05-07T10:04:22;17.90;99.90
39345;DHT22;25061;51.954;6.996;2023-05-07T10:06:48;18.30;99.90
39345;DHT22;25061;51.954;6.996;2023-05-07T10:09:14;18.40;99.90
39345;DHT22;25061;51.954;6.996;2023-05-07T10:11:41;18.60;99.90
39345;DHT22;25061;51.954;6.996;2023-05-07T10:14:07;18.40;99.90
39345;DHT22;25061;51.954;6.996;2023-05-07T10:16:35;17.90;99.90
39345;DHT22;25061;51.954;6.996;2023-05-07T10:19:06;18.20;99.90
39345;DHT22;25061;51.954;6.996;2023-05-07T10:21:36;18.30;99.90
39345;DHT22;25061;51.954;6.996;2023-05-07T10:24:26;18.10;99.90
39345;DHT22;25061;51.954;6.996;2023-05-07T10:26:53;18.30;99.90
39345;DHT22;25061;51.954;6.996;2023-05-07T10:34:47;18.70;99.90
39345;DHT22;25061;51.954;6.996;2023-05-07T10:37:14;18.80;99.90
39345;DHT22;25061;51.954;6.996;2023-05-07T10:39:41;18.90;99.90
39345;DHT22;25061;51.954;6.996;2023-05-07T10:42:10;18.90;99.90
39345;DHT22;25061;51.954;6.996;2023-05-07T10:44:36;19.10;99.90
39345;DHT22;25061;51.954;6.996;2023-05-07T10:47:10;18.90;99.90
39345;DHT22;25061;51.954;6.996;2023-05-07T10:52:31;18.90;99.90
39345;DHT22;25061;51.954;6.996;2023-05-07T10:57:42;19.00;99.90
39345;DHT22;25061;51.954;6.996;2023-05-07T11:05:32;19.30;99.90
39345;DHT22;25061;51.954;6.996;2023-05-07T11:08:02;19.20;99.90
39345;DHT22;25061;51.954;6.996;2023-05-07T11:10:48;19.20;99.90
39345;DHT22;25061;51.954;6.996;2023-05-07T11:13:14;19.30;99.90
39345;DHT22;25061;51.954;6.996;2023-05-07T11:15:42;19.20;99.90
39345;DHT22;25061;51.954;6.996;2023-05-07T11:18:10;19.40;99.90
39345;DHT22;25061;51.954;6.996;2023-05-07T11:26:12;19.30;99.90
39345;DHT22;25061;51.954;6.996;2023-05-07T11:28:43;19.40;99.90
39345;DHT22;25061;51.954;6.996;2023-05-07T11:31:09;19.70;99.90
39345;DHT22;25061;51.954;6.996;2023-05-07T11:33:36;19.60;99.90
39345;DHT22;25061;51.954;6.996;2023-05-07T11:36:04;19.70;99.90
39345;DHT22;25061;51.954;6.996;2023-05-07T11:38:30;19.80;99.90
39345;DHT22;25061;51.954;6.996;2023-05-07T11:40:58;20.10;99.90
39345;DHT22;25061;51.954;6.996;2023-05-07T11:43:26;19.70;99.90
39345;DHT22;25061;51.954;6.996;2023-05-07T11:45:52;19.30;99.90
39345;DHT22;25061;51.954;6.996;2023-05-07T11:48:18;19.60;99.90
39345;DHT22;25061;51.954;6.996;2023-05-07T11:51:01;19.50;99.90
39345;DHT22;25061;51.954;6.996;2023-05-07T11:53:35;19.90;99.90
39345;DHT22;25061;51.954;6.996;2023-05-07T11:56:05;20.20;99.90
39345;DHT22;25061;51.954;6.996;2023-05-07T11:58:31;20.20;99.90
39345;DHT22;25061;51.954;6.996;2023-05-07T12:00:57;20.10;99.90
39345;DHT22;25061;51.954;6.996;2023-05-07T12:03:22;20.20;99.90
39345;DHT22;25061;51.954;6.996;2023-05-07T12:05:48;20.10;99.90
39345;DHT22;25061;51.954;6.996;2023-05-07T12:08:18;20.00;99.90
39345;DHT22;25061;51.954;6.996;2023-05-07T12:10:47;20.30;99.90
39345;DHT22;25061;51.954;6.996;2023-05-07T12:13:23;20.20;99.90
39345;DHT22;25061;51.954;6.996;2023-05-07T12:15:54;19.90;99.90
39345;DHT22;25061;51.954;6.996;2023-05-07T12:18:21;20.20;99.90
39345;DHT22;25061;51.954;6.996;2023-05-07T12:20:48;20.50;99.90
39345;DHT22;25061;51.954;6.996;2023-05-07T12:23:16;20.20;99.90
39345;DHT22;25061;51.954;6.996;2023-05-07T12:25:42;20.50;99.90
39345;DHT22;25061;51.954;6.996;2023-05-07T12:28:18;20.00;99.90
39345;DHT22;25061;51.954;6.996;2023-05-07T12:30:45;19.90;99.90
39345;DHT22;25061;51.954;6.996;2023-05-07T12:33:11;20.00;99.90
39345;DHT22;25061;51.954;6.996;2023-05-07T12:35:41;20.20;99.90
39345;DHT22;25061;51.954;6.996;2023-05-07T12:38:15;20.10;99.90
39345;DHT22;25061;51.954;6.996;2023-05-07T12:40:54;20.40;99.90
39345;DHT22;25061;51.954;6.996;2023-05-07T12:43:20;20.20;99.90
39345;DHT22;25061;51.954;6.996;2023-05-07T12:45:48;20.30;99.90
39345;DHT22;25061;51.954;6.996;2023-05-07T12:48:14;20.40;99.90
39345;DHT22;25061;51.954;6.996;2023-05-07T12:50:40;20.50;99.90
39345;DHT22;25061;51.954;6.996;2023-05-07T12:53:08;20.10;99.90
39345;DHT22;25061;51.954;6.996;2023-05-07T12:55:48;20.10;99.90
39345;DHT22;25061;51.954;6.996;2023-05-07T12:58:22;20.30;99.90
39345;DHT22;25061;51.954;6.996;2023-05-07T13:00:49;20.40;99.90
39345;DHT22;25061;51.954;6.996;2023-05-07T13:03:29;20.20;99.90
39345;DHT22;25061;51.954;6.996;2023-05-07T13:06:01;20.30;99.90
39345;DHT22;25061;51.954;6.996;2023-05-07T13:08:30;20.30;99.90
39345;DHT22;25061;51.954;6.996;2023-05-07T13:10:57;20.10;99.90
39345;DHT22;25061;51.954;6.996;2023-05-07T13:13:23;20.30;99.90
39345;DHT22;25061;51.954;6.996;2023-05-07T13:15:49;20.30;99.90
39345;DHT22;25061;51.954;6.996;2023-05-07T13:18:14;20.40;99.90
39345;DHT22;25061;51.954;6.996;2023-05-07T13:20:40;20.50;99.90
39345;DHT22;25061;51.954;6.996;2023-05-07T13:23:06;20.40;99.90
39345;DHT22;25061;51.954;6.996;2023-05-07T13:25:32;20.70;99.90
39345;DHT22;25061;51.954;6.996;2023-05-07T13:27:57;20.60;99.90
39345;DHT22;25061;51.954;6.996;2023-05-07T13:30:24;20.40;99.90
39345;DHT22;25061;51.954;6.996;2023-05-07T13:32:51;20.20;99.90
39345;DHT22;25061;51.954;6.996;2023-05-07T13:35:17;20.30;99.90
39345;DHT22;25061;51.954;6.996;2023-05-07T13:37:43;20.70;99.90
39345;DHT22;25061;51.954;6.996;2023-05-07T13:40:09;20.00;99.90
39345;DHT22;25061;51.954;6.996;2023-05-07T13:42:35;20.20;99.90
39345;DHT22;25061;51.954;6.996;2023-05-07T13:45:00;20.30;99.90
39345;DHT22;25061;51.954;6.996;2023-05-07T13:47:28;20.30;99.90
39345;DHT22;25061;51.954;6.996;2023-05-07T13:49:54;20.00;99.90
39345;DHT22;25061;51.954;6.996;2023-05-07T13:52:19;20.20;99.90
39345;DHT22;25061;51.954;6.996;2023-05-07T13:54:45;20.40;99.90
39345;DHT22;25061;51.954;6.996;2023-05-07T13:57:11;20.40;99.90
39345;DHT22;25061;51.954;6.996;2023-05-07T13:59:36;20.10;99.90
39345;DHT22;25061;51.954;6.996;2023-05-07T14:02:02;20.20;99.90
39345;DHT22;25061;51.954;6.996;2023-05-07T14:04:28;20.00;99.90
39345;DHT22;25061;51.954;6.996;2023-05-07T14:06:53;20.00;99.90
39345;DHT22;25061;51.954;6.996;2023-05-07T14:09:19;20.00;99.90
39345;DHT22;25061;51.954;6.996;2023-05-07T14:11:45;19.70;99.90
39345;DHT22;25061;51.954;6.996;2023-05-07T14:14:12;19.90;99.90
39345;DHT22;25061;51.954;6.996;2023-05-07T14:16:38;20.00;99.90
39345;DHT22;25061;51.954;6.996;2023-05-07T14:19:06;19.80;99.90
39345;DHT22;25061;51.954;6.996;2023-05-07T14:21:31;20.00;99.90
39345;DHT22;25061;51.954;6.996;2023-05-07T14:23:57;20.00;99.90
39345;DHT22;25061;51.954;6.996;2023-05-07T14:26:23;19.90;99.90
39345;DHT22;25061;51.954;6.996;2023-05-07T14:28:49;19.80;99.90
39345;DHT22;25061;51.954;6.996;2023-05-07T14:31:14;19.90;99.90
39345;DHT22;25061;51.954;6.996;2023-05-07T14:33:40;19.90;99.90
39345;DHT22;25061;51.954;6.996;2023-05-07T14:36:06;19.60;99.90
39345;DHT22;25061;51.954;6.996;2023-05-07T14:38:32;19.40;99.90
39345;DHT22;25061;51.954;6.996;2023-05-07T14:40:58;19.30;99.90
39345;DHT22;25061;51.954;6.996;2023-05-07T14:43:24;19.30;99.90
39345;DHT22;25061;51.954;6.996;2023-05-07T14:45:49;19.30;99.90
39345;DHT22;25061;51.954;6.996;2023-05-07T14:48:15;19.30;99.90
39345;DHT22;25061;51.954;6.996;2023-05-07T14:50:42;19.30;99.90
39345;DHT22;25061;51.954;6.996;2023-05-07T14:53:07;19.20;99.90
39345;DHT22;25061;51.954;6.996;2023-05-07T14:55:35;19.10;99.90
39345;DHT22;25061;51.954;6.996;2023-05-07T14:58:01;19.10;99.90
39345;DHT22;25061;51.954;6.996;2023-05-07T15:00:26;19.10;99.90
39345;DHT22;25061;51.954;6.996;2023-05-07T15:02:57;19.10;99.90
39345;DHT22;25061;51.954;6.996;2023-05-07T15:05:29;19.00;99.90
39345;DHT22;25061;51.954;6.996;2023-05-07T15:07:54;19.00;99.90
39345;DHT22;25061;51.954;6.996;2023-05-07T15:10:21;19.00;99.90
39345;DHT22;25061;51.954;6.996;2023-05-07T15:12:46;19.00;99.90
39345;DHT22;25061;51.954;6.996;2023-05-07T15:15:12;19.10;99.90
39345;DHT22;25061;51.954;6.996;2023-05-07T15:17:38;19.00;99.90
39345;DHT22;25061;51.954;6.996;2023-05-07T15:20:04;18.80;99.90
39345;DHT22;25061;51.954;6.996;2023-05-07T15:22:31;18.90;99.90
39345;DHT22;25061;51.954;6.996;2023-05-07T15:24:57;18.90;99.90
39345;DHT22;25061;51.954;6.996;2023-05-07T15:27:24;18.80;99.90
39345;DHT22;25061;51.954;6.996;2023-05-07T15:29:49;18.80;99.90
39345;DHT22;25061;51.954;6.996;2023-05-07T15:32:15;18.90;99.90
39345;DHT22;25061;51.954;6.996;2023-05-07T15:34:41;18.90;99.90
39345;DHT22;25061;51.954;6.996;2023-05-07T15:37:06;18.90;99.90
39345;DHT22;25061;51.954;6.996;2023-05-07T15:39:32;18.80;99.90
39345;DHT22;25061;51.954;6.996;2023-05-07T15:41:57;18.80;99.90
39345;DHT22;25061;51.954;6.996;2023-05-07T15:44:23;18.90;99.90
39345;DHT22;25061;51.954;6.996;2023-05-07T15:46:53;18.70;99.90
39345;DHT22;25061;51.954;6.996;2023-05-07T15:49:18;18.70;99.90
39345;DHT22;25061;51.954;6.996;2023-05-07T15:51:44;18.80;99.90
39345;DHT22;25061;51.954;6.996;2023-05-07T15:54:09;18.70;99.90
39345;DHT22;25061;51.954;6.996;2023-05-07T15:56:35;18.70;99.90
39345;DHT22;25061;51.954;6.996;2023-05-07T15:59:01;18.70;99.90
39345;DHT22;25061;51.954;6.996;2023-05-07T16:01:27;18.80;99.90
39345;DHT22;25061;51.954;6.996;2023-05-07T16:03:53;18.80;99.90
39345;DHT22;25061;51.954;6.996;2023-05-07T16:06:18;18.80;99.90
39345;DHT22;25061;51.954;6.996;2023-05-07T16:08:44;18.80;99.90
39345;DHT22;25061;51.954;6.996;2023-05-07T16:11:09;18.70;99.90
39345;DHT22;25061;51.954;6.996;2023-05-07T16:13:36;18.70;99.90
39345;DHT22;25061;51.954;6.996;2023-05-07T16:16:02;18.70;99.90
39345;DHT22;25061;51.954;6.996;2023-05-07T16:18:28;18.70;99.90
39345;DHT22;25061;51.954;6.996;2023-05-07T16:20:53;18.70;99.90
39345;DHT22;25061;51.954;6.996;2023-05-07T16:23:19;18.60;99.90
39345;DHT22;25061;51.954;6.996;2023-05-07T16:25:45;18.60;99.90
39345;DHT22;25061;51.954;6.996;2023-05-07T16:28:11;18.60;99.90
39345;DHT22;25061;51.954;6.996;2023-05-07T16:30:37;18.50;99.90
39345;DHT22;25061;51.954;6.996;2023-05-07T16:33:02;18.50;99.90
39345;DHT22;25061;51.954;6.996;2023-05-07T16:35:28;18.50;99.90
39345;DHT22;25061;51.954;6.996;2023-05-07T16:37:53;18.50;99.90
39345;DHT22;25061;51.954;6.996;2023-05-07T16:40:19;18.60;99.90
39345;DHT22;25061;51.954;6.996;2023-05-07T16:42:45;18.50;99.90
39345;DHT22;25061;51.954;6.996;2023-05-07T16:45:11;18.50;99.90
39345;DHT22;25061;51.954;6.996;2023-05-07T16:47:36;18.50;99.90
39345;DHT22;25061;51.954;6.996;2023-05-07T16:50:02;18.50;99.90
39345;DHT22;25061;51.954;6.996;2023-05-07T16:52:30;18.50;99.90
39345;DHT22;25061;51.954;6.996;2023-05-07T16:54:56;18.50;99.90
39345;DHT22;25061;51.954;6.996;2023-05-07T16:57:29;18.40;99.90
39345;DHT22;25061;51.954;6.996;2023-05-07T16:59:55;18.40;99.90
39345;DHT22;25061;51.954;6.996;2023-05-07T17:02:21;18.30;99.90
39345;DHT22;25061;51.954;6.996;2023-05-07T17:04:47;18.30;99.90
39345;DHT22;25061;51.954;6.996;2023-05-07T17:07:12;18.30;99.90
39345;DHT22;25061;51.954;6.996;2023-05-07T17:09:39;18.40;99.90
39345;DHT22;25061;51.954;6.996;2023-05-07T17:12:05;18.40;99.90
39345;DHT22;25061;51.954;6.996;2023-05-07T17:14:31;18.30;99.90
39345;DHT22;25061;51.954;6.996;2023-05-07T17:16:58;18.30;99.90
39345;DHT22;25061;51.954;6.996;2023-05-07T17:19:24;18.30;99.90
39345;DHT22;25061;51.954;6.996;2023-05-07T17:21:49;18.30;99.90
39345;DHT22;25061;51.954;6.996;2023-05-07T17:24:15;18.20;99.90
39345;DHT22;25061;51.954;6.996;2023-05-07T17:26:41;18.20;99.90
39345;DHT22;25061;51.954;6.996;2023-05-07T17:29:08;18.20;99.90
39345;DHT22;25061;51.954;6.996;2023-05-07T17:31:34;18.30;99.90
39345;DHT22;25061;51.954;6.996;2023-05-07T17:33:59;18.20;99.90
39345;DHT22;25061;51.954;6.996;2023-05-07T17:36:25;18.20;99.90
39345;DHT22;25061;51.954;6.996;2023-05-07T17:38:51;18.20;99.90
39345;DHT22;25061;51.954;6.996;2023-05-07T17:41:16;18.10;99.90
39345;DHT22;25061;51.954;6.996;2023-05-07T17:43:42;18.10;99.90
39345;DHT22;25061;51.954;6.996;2023-05-07T17:46:09;18.10;99.90
39345;DHT22;25061;51.954;6.996;2023-05-07T17:48:34;18.10;99.90
39345;DHT22;25061;51.954;6.996;2023-05-07T17:51:01;18.00;99.90
39345;DHT22;25061;51.954;6.996;2023-05-07T17:53:27;18.00;99.90
39345;DHT22;25061;51.954;6.996;2023-05-07T17:55:53;18.00;99.90
39345;DHT22;25061;51.954;6.996;2023-05-07T17:58:18;18.00;99.90
39345;DHT22;25061;51.954;6.996;2023-05-07T18:00:44;17.90;99.90
39345;DHT22;25061;51.954;6.996;2023-05-07T18:03:10;17.90;99.90
39345;DHT22;25061;51.954;6.996;2023-05-07T18:05:35;17.90;99.90
39345;DHT22;25061;51.954;6.996;2023-05-07T18:08:02;17.80;99.90
39345;DHT22;25061;51.954;6.996;2023-05-07T18:10:27;17.80;99.90
39345;DHT22;25061;51.954;6.996;2023-05-07T18:12:53;17.80;99.90
39345;DHT22;25061;51.954;6.996;2023-05-07T18:15:19;17.70;99.90
39345;DHT22;25061;51.954;6.996;2023-05-07T18:17:44;17.60;99.90
39345;DHT22;25061;51.954;6.996;2023-05-07T18:20:10;17.60;99.90
39345;DHT22;25061;51.954;6.996;2023-05-07T18:22:37;17.50;99.90
39345;DHT22;25061;51.954;6.996;2023-05-07T18:25:03;17.50;99.90
39345;DHT22;25061;51.954;6.996;2023-05-07T18:27:29;17.40;99.90
39345;DHT22;25061;51.954;6.996;2023-05-07T18:29:54;17.20;99.90
39345;DHT22;25061;51.954;6.996;2023-05-07T18:32:20;17.20;99.90
39345;DHT22;25061;51.954;6.996;2023-05-07T18:34:46;17.20;99.90
39345;DHT22;25061;51.954;6.996;2023-05-07T18:37:12;17.10;99.90
39345;DHT22;25061;51.954;6.996;2023-05-07T18:39:37;17.10;99.90
39345;DHT22;25061;51.954;6.996;2023-05-07T18:42:03;17.00;99.90
39345;DHT22;25061;51.954;6.996;2023-05-07T18:44:30;17.00;99.90
39345;DHT22;25061;51.954;6.996;2023-05-07T18:46:56;17.00;99.90
39345;DHT22;25061;51.954;6.996;2023-05-07T18:49:23;16.90;99.90
39345;DHT22;25061;51.954;6.996;2023-05-07T18:51:48;16.90;99.90
39345;DHT22;25061;51.954;6.996;2023-05-07T18:54:14;16.80;99.90
39345;DHT22;25061;51.954;6.996;2023-05-07T18:56:40;16.70;99.90
39345;DHT22;25061;51.954;6.996;2023-05-07T18:59:06;16.70;99.90
39345;DHT22;25061;51.954;6.996;2023-05-07T19:01:32;16.70;99.90
39345;DHT22;25061;51.954;6.996;2023-05-07T19:03:57;16.60;99.90
39345;DHT22;25061;51.954;6.996;2023-05-07T19:06:23;16.60;99.90
39345;DHT22;25061;51.954;6.996;2023-05-07T19:08:50;16.50;99.90
39345;DHT22;25061;51.954;6.996;2023-05-07T19:11:16;16.50;99.90
39345;DHT22;25061;51.954;6.996;2023-05-07T19:13:42;16.50;99.90
39345;DHT22;25061;51.954;6.996;2023-05-07T19:16:08;16.40;99.90
39345;DHT22;25061;51.954;6.996;2023-05-07T19:18:38;16.40;99.90
39345;DHT22;25061;51.954;6.996;2023-05-07T19:21:04;16.40;99.90
39345;DHT22;25061;51.954;6.996;2023-05-07T19:23:31;16.40;99.90
39345;DHT22;25061;51.954;6.996;2023-05-07T19:25:57;16.40;99.90
39345;DHT22;25061;51.954;6.996;2023-05-07T19:28:22;16.30;99.90
39345;DHT22;25061;51.954;6.996;2023-05-07T19:30:49;16.30;99.90
39345;DHT22;25061;51.954;6.996;2023-05-07T19:33:17;16.20;99.90
39345;DHT22;25061;51.954;6.996;2023-05-07T19:35:43;16.10;99.90
39345;DHT22;25061;51.954;6.996;2023-05-07T19:38:09;16.10;99.90
39345;DHT22;25061;51.954;6.996;2023-05-07T19:40:35;15.90;99.90
39345;DHT22;25061;51.954;6.996;2023-05-07T19:43:00;15.90;99.90
39345;DHT22;25061;51.954;6.996;2023-05-07T19:45:26;16.00;99.90
39345;DHT22;25061;51.954;6.996;2023-05-07T19:47:52;15.90;99.90
39345;DHT22;25061;51.954;6.996;2023-05-07T19:50:17;15.80;99.90
39345;DHT22;25061;51.954;6.996;2023-05-07T19:52:43;15.90;99.90
39345;DHT22;25061;51.954;6.996;2023-05-07T19:55:09;15.80;99.90
39345;DHT22;25061;51.954;6.996;2023-05-07T19:57:34;15.70;99.90
39345;DHT22;25061;51.954;6.996;2023-05-07T20:00:00;15.70;99.90
39345;DHT22;25061;51.954;6.996;2023-05-07T20:02:26;15.60;99.90
39345;DHT22;25061;51.954;6.996;2023-05-07T20:04:54;15.60;99.90
39345;DHT22;25061;51.954;6.996;2023-05-07T20:07:20;15.60;99.90
39345;DHT22;25061;51.954;6.996;2023-05-07T20:09:45;15.60;99.90
39345;DHT22;25061;51.954;6.996;2023-05-07T20:12:11;15.50;99.90
39345;DHT22;25061;51.954;6.996;2023-05-07T20:14:37;15.60;99.90
39345;DHT22;25061;51.954;6.996;2023-05-07T20:17:03;15.50;99.90
39345;DHT22;25061;51.954;6.996;2023-05-07T20:19:28;15.50;99.90
39345;DHT22;25061;51.954;6.996;2023-05-07T20:21:54;15.60;99.90
39345;DHT22;25061;51.954;6.996;2023-05-07T20:24:19;15.50;99.90
39345;DHT22;25061;51.954;6.996;2023-05-07T20:26:45;15.50;99.90
39345;DHT22;25061;51.954;6.996;2023-05-07T20:29:11;15.50;99.90
39345;DHT22;25061;51.954;6.996;2023-05-07T20:31:37;15.50;99.90
39345;DHT22;25061;51.954;6.996;2023-05-07T20:34:02;15.40;99.90
39345;DHT22;25061;51.954;6.996;2023-05-07T20:36:28;15.40;99.90
39345;DHT22;25061;51.954;6.996;2023-05-07T20:38:53;15.40;99.90
39345;DHT22;25061;51.954;6.996;2023-05-07T20:41:20;15.40;99.90
39345;DHT22;25061;51.954;6.996;2023-05-07T20:43:46;15.40;99.90
39345;DHT22;25061;51.954;6.996;2023-05-07T20:46:12;15.40;99.90
39345;DHT22;25061;51.954;6.996;2023-05-07T20:48:38;15.40;99.90
39345;DHT22;25061;51.954;6.996;2023-05-07T20:51:04;15.40;99.90
39345;DHT22;25061;51.954;6.996;2023-05-07T20:53:30;15.30;99.90
39345;DHT22;25061;51.954;6.996;2023-05-07T20:55:57;15.30;99.90
39345;DHT22;25061;51.954;6.996;2023-05-07T20:58:24;15.20;99.90
39345;DHT22;25061;51.954;6.996;2023-05-07T21:00:54;15.20;99.90
39345;DHT22;25061;51.954;6.996;2023-05-07T21:03:20;15.20;99.90
39345;DHT22;25061;51.954;6.996;2023-05-07T21:05:53;15.20;99.90
39345;DHT22;25061;51.954;6.996;2023-05-07T21:08:20;15.20;99.90
39345;DHT22;25061;51.954;6.996;2023-05-07T21:10:46;15.20;99.90
39345;DHT22;25061;51.954;6.996;2023-05-07T21:13:12;15.20;99.90
39345;DHT22;25061;51.954;6.996;2023-05-07T21:15:37;15.10;99.90
39345;DHT22;25061;51.954;6.996;2023-05-07T21:18:03;15.10;99.90